METAR Data
IDs: Format: Raw Decoded Include TAF

Data at: 0215 UTC 24 Sep 2018

KGNB 240150Z AUTO 24004KT 10SM BKN110 17/M03 A3016 RMK AO2 T01691030
KGNB 240130Z AUTO 26007KT 10SM SCT120 18/M03 A3015 RMK AO2 T01751032
KGNB 240105Z AUTO 26012KT 10SM CLR 17/M03 A3015 RMK AO2 T01711034
KGNB 240050Z AUTO 27009G16KT 10SM CLR 18/M04 A3015 RMK AO2 T01831037
KGNB 240030Z AUTO 27012G17KT 10SM SCT110 19/M04 A3015 RMK AO2 T01911040
KGNB 240010Z AUTO 28009G14KT 10SM CLR 20/M04 A3015 RMK AO2 T01971040
KGNB 232345Z AUTO 26016KT 10SM SCT120 21/M04 A3015 RMK AO2 T02101041
KGNB 232325Z AUTO 26011G17KT 10SM SCT120 21/M04 A3016 RMK AO2 T02071043
KGNB 232305Z AUTO 26014G21KT 10SM SCT110 20/M04 A3016 RMK AO2 T02041042
KGNB 232245Z AUTO 26009G20KT 10SM CLR 20/M04 A3016 RMK AO2 T02031041
KGNB 232225Z AUTO 27014G18KT 10SM CLR 23/M03 A3017 RMK AO2 T02261035
KGNB 232210Z AUTO 26008G22KT 10SM SCT120 22/M04 A3017 RMK AO2 T02161042
KGNB 232145Z AUTO 27010KT 10SM BKN120 23/M04 A3018 RMK AO2 T02281039
KGNB 232130Z AUTO 26009G21KT 10SM SCT120 23/M04 A3018 RMK AO2 T02281037
KGNB 232105Z AUTO 25013G19KT 10SM SCT100 22/M05 A3019 RMK AO2 T02171049
KGNB 232045Z AUTO 26010G25KT 230V290 10SM CLR 21/M04 A3020 RMK AO2 T02111038
KGNB 232030Z AUTO 25014G21KT 10SM SCT095 20/M04 A3020 RMK AO2 T02021045
KGNB 232010Z AUTO 24011G21KT 10SM SCT095 23/M04 A3020 RMK AO2 T02291041
KGNB 231905Z AUTO 23011G21KT 10SM SCT095 22/M03 A3024 RMK AO2 T02201032
KGNB 231850Z AUTO 25012G24KT 10SM CLR 22/M03 A3025 RMK AO2 T02191029
KGNB 231830Z AUTO 29013G18KT 10SM CLR 21/M03 A3026 RMK AO2 T02121027
KGNB 231810Z AUTO 30006KT 10SM SCT100 20/M02 A3027 RMK AO2 T01971025
KGNB 231745Z AUTO 29003KT 10SM BKN100 18/M04 A3029 RMK AO2 T01791036
KGNB 231730Z AUTO 00000KT 10SM BKN100 17/M04 A3030 RMK AO2 T01681041
KGNB 231710Z AUTO 00000KT 7SM SCT100 17/M05 A3031 RMK AO2 T01651046
KGNB 231645Z AUTO 00000KT 10SM SCT100 13/M05 A3032 RMK AO2 T01321054
KGNB 231630Z AUTO 00000KT 10SM BKN100 13/M05 A3033 RMK AO2 T01311053
KGNB 231605Z AUTO 00000KT 10SM OVC100 11/M05 A3033 RMK AO2 T01061050
KGNB 231545Z AUTO 29003KT 10SM OVC100 09/M05 A3034 RMK AO2 T00941048
KGNB 231530Z AUTO 00000KT 10SM BKN100 08/M04 A3033 RMK AO2 T00821044
KGNB 231510Z AUTO 00000KT 10SM SCT100 07/M05 A3033 RMK AO2 T00661049
KGNB 231445Z AUTO 00000KT 10SM BKN100 05/M06 A3034 RMK AO2 T00521063
KGNB 231425Z AUTO 00000KT 10SM SCT100 04/M07 A3034 RMK AO2 T00401067
KGNB 231405Z AUTO 00000KT 10SM CLR 02/M07 A3034 RMK AO2 T00171071
KGNB 231350Z AUTO 00000KT 10SM CLR 01/M07 A3034 RMK AO2 T00081074
KGNB 231330Z AUTO 12003KT 10SM CLR M01/M08 A3034 RMK AO2 T10071076
KGNB 231305Z AUTO 00000KT 10SM CLR 00/M08 A3034 RMK AO2 T10051077
KGNB 231245Z AUTO 00000KT 10SM CLR M01/M08 A3034 RMK AO2 T10141081
KGNB 231230Z AUTO 00000KT 10SM CLR M01/M08 A3034 RMK AO2 T10151081
KGNB 231205Z AUTO 00000KT 10SM CLR M01/M08 A3034 RMK AO2 T10131082
KGNB 231150Z AUTO 13003KT 10SM CLR M01/M08 A3034 RMK AO2 T10131084 10057 21015
KGNB 231125Z AUTO 14003KT 10SM CLR 00/M08 A3033 RMK AO2 T10041085
KGNB 231105Z AUTO 09003KT 10SM CLR M01/M08 A3033 RMK AO2 T10131081
KGNB 231050Z AUTO 07004KT 10SM CLR M01/M08 A3033 RMK AO2 T10091081
KGNB 231030Z AUTO 00000KT 10SM CLR 00/M08 A3033 RMK AO2 T10031085
KGNB 231010Z AUTO 00000KT 10SM CLR 01/M09 A3033 RMK AO2 T00081086
KGNB 230945Z AUTO 00000KT 10SM CLR 01/M08 A3033 RMK AO2 T00141084
KGNB 230930Z AUTO 00000KT 10SM CLR 00/M08 A3033 RMK AO2 T00001080
KGNB 230910Z AUTO 00000KT 10SM CLR 02/M08 A3033 RMK AO2 T00241078
KGNB 230850Z AUTO 10003KT 10SM CLR 01/M08 A3033 RMK AO2 T00121085
KGNB 230830Z AUTO 00000KT 10SM CLR 03/M09 A3033 RMK AO2 T00341089
KGNB 230810Z AUTO 00000KT 10SM CLR 03/M08 A3033 RMK AO2 T00311085
KGNB 230750Z AUTO 00000KT 10SM CLR 02/M08 A3033 RMK AO2 T00171083
KGNB 230730Z AUTO 00000KT 10SM SCT090 04/M09 A3033 RMK AO2 T00361091
KGNB 230710Z AUTO 00000KT 10SM SCT090 03/M09 A3033 RMK AO2 T00261086
KGNB 230650Z AUTO 00000KT 10SM CLR 02/M08 A3033 RMK AO2 T00241082 402341036
KGNB 230630Z AUTO 00000KT 7SM CLR 05/M09 A3033 RMK AO2 T00501089
KGNB 230610Z AUTO 00000KT 10SM CLR 05/M09 A3033 RMK AO2 T00521091
KGNB 230550Z AUTO 08004KT 7SM CLR 05/M07 A3033 RMK AO2 T00511072 10215 20042
KGNB 230530Z AUTO 12003KT 7SM CLR 06/M10 A3034 RMK AO2 T00631096
KGNB 230510Z AUTO 00000KT 7SM CLR 06/M08 A3033 RMK AO2 T00561085
KGNB 230445Z AUTO 03006KT 10SM CLR 07/M09 A3033 RMK AO2 T00651095
KGNB 230425Z AUTO 00000KT 5SM HZ CLR 09/M10 A3033 RMK AO2 T00871103
KGNB 230410Z AUTO 00000KT 10SM CLR 09/M10 A3033 RMK AO2 T00941105
KGNB 230350Z AUTO 00000KT 10SM CLR 10/M10 A3033 RMK AO2 T01001104
KGNB 230330Z AUTO 15006KT 10SM CLR 12/M11 A3033 RMK AO2 T01151106
KGNB 230310Z AUTO 13004KT 10SM CLR 12/M10 A3033 RMK AO2 T01171105
KGNB 230250Z AUTO 11005KT 10SM CLR 11/M10 A3032 RMK AO2 T01071104
KGNB 230230Z AUTO 14004KT 10SM CLR 12/M11 A3031 RMK AO2 T01241113
KGNB 230210Z AUTO 13004KT 10SM CLR 12/M11 A3031 RMK AO2 T01221110
KGNB 230150Z AUTO 00000KT 10SM CLR 13/M11 A3031 RMK AO2 T01321111
KGNB 230125Z AUTO 00000KT 10SM CLR 16/M12 A3030 RMK AO2 T01611118
KGNB 230110Z AUTO 25004KT 10SM CLR 17/M12 A3030 RMK AO2 T01661119
KGNB 230050Z AUTO 25006KT 10SM CLR 18/M12 A3030 RMK AO2 T01831123
KGNB 230030Z AUTO 23007KT 10SM CLR 20/M12 A3030 RMK AO2 T02001116
KGNB 230010Z AUTO 26006KT 10SM CLR 21/M12 A3030 RMK AO2 T02101120
KGNB 222350Z AUTO 23012G16KT 10SM CLR 22/M11 A3029 RMK AO2 T02171114 10234 20185
KGNB 222325Z AUTO 27007G14KT 10SM CLR 22/M11 A3029 RMK AO2 T02241107
KGNB 222310Z AUTO 25006G18KT 10SM CLR 22/M12 A3029 RMK AO2 T02241116
KGNB 222250Z AUTO 27013G16KT 7SM CLR 23/M11 A3030 RMK AO2 T02271110
KGNB 222230Z AUTO 23008G16KT 10SM CLR 23/M11 A3030 RMK AO2 T02271109
KGNB 222210Z AUTO 25010KT 10SM CLR 23/M11 A3030 RMK AO2 T02251109
KGNB 222145Z AUTO 24013G19KT 10SM CLR 23/M11 A3031 RMK AO2 T02291112
KGNB 222130Z AUTO 26006G17KT 10SM CLR 23/M11 A3032 RMK AO2 T02321110
KGNB 222110Z AUTO 27008G19KT 230V300 10SM CLR 23/M11 A3033 RMK AO2 T02281112
KGNB 222045Z AUTO 29008KT 10SM CLR 23/M10 A3033 RMK AO2 T02251102
KGNB 222025Z AUTO 29004G17KT 10SM CLR 22/M11 A3035 RMK AO2 T02161108
KGNB 222005Z AUTO 27011G18KT 10SM CLR 22/M11 A3036 RMK AO2 T02231109
KGNB 221945Z AUTO 27009G17KT 10SM CLR 22/M11 A3037 RMK AO2 T02211113
KGNB 221930Z AUTO 24014G18KT 10SM CLR 22/M11 A3038 RMK AO2 T02201114
KGNB 221905Z AUTO 26010KT 10SM CLR 21/M11 A3039 RMK AO2 T02091110
KGNB 221850Z AUTO 29007KT 10SM CLR 21/M10 A3040 RMK AO2 T02051105
KGNB 221830Z AUTO 25007G18KT 230V300 10SM CLR 21/M10 A3040 RMK AO2 T02051098
KGNB 221725Z AUTO 00000KT 10SM CLR 17/M08 A3043 RMK AO2 T01691076
KGNB 221710Z AUTO 00000KT 10SM CLR 15/M07 A3044 RMK AO2 T01521068
KGNB 221650Z AUTO 00000KT 10SM CLR 13/M07 A3045 RMK AO2 T01331066
KGNB 221625Z AUTO 00000KT 10SM CLR 11/M07 A3046 RMK AO2 T01071073
KGNB 221610Z AUTO 00000KT 10SM CLR 10/M07 A3047 RMK AO2 T00971068
KGNB 221545Z AUTO 00000KT 10SM CLR 08/M07 A3047 RMK AO2 T00771069
KGNB 221530Z AUTO 00000KT 10SM CLR 06/M07 A3047 RMK AO2 T00631072
KGNB 221510Z AUTO 00000KT 10SM CLR 05/M07 A3047 RMK AO2 T00471068
KGNB 221450Z AUTO 00000KT 10SM CLR 03/M07 A3048 RMK AO2 T00321075
KGNB 221425Z AUTO 00000KT 10SM CLR 01/M08 A3049 RMK AO2 T00091076